sensor_id;sensor_type;location;lat;lon;timestamp;pressure;altitude;pressure_sealevel;temperature;humidity
62592;BME280;48659;41.622;2.276;2022-08-07T00:00:45;99786.12;;;26.09;35.63
62592;BME280;48659;41.622;2.276;2022-08-07T00:03:20;99787.08;;;24.85;37.46
62592;BME280;48659;41.622;2.276;2022-08-07T00:05:48;99780.02;;;25.74;36.50
62592;BME280;48659;41.622;2.276;2022-08-07T00:08:16;99783.18;;;26.73;34.85
62592;BME280;48659;41.622;2.276;2022-08-07T00:14:54;99785.29;;;24.25;38.96
62592;BME280;48659;41.622;2.276;2022-08-07T00:17:22;99787.64;;;24.44;38.16
62592;BME280;48659;41.622;2.276;2022-08-07T00:19:50;99781.75;;;23.62;40.89
62592;BME280;48659;41.622;2.276;2022-08-07T00:22:17;99776.93;;;24.06;39.35
62592;BME280;48659;41.622;2.276;2022-08-07T00:24:45;99773.57;;;24.16;39.35
62592;BME280;48659;41.622;2.276;2022-08-07T00:27:21;99769.23;;;24.16;39.13
62592;BME280;48659;41.622;2.276;2022-08-07T00:29:48;99764.35;;;24.15;38.97
62592;BME280;48659;41.622;2.276;2022-08-07T00:32:16;99759.13;;;25.35;37.22
62592;BME280;48659;41.622;2.276;2022-08-07T00:34:43;99757.93;;;24.21;38.16
62592;BME280;48659;41.622;2.276;2022-08-07T00:37:11;99753.85;;;23.54;39.57
62592;BME280;48659;41.622;2.276;2022-08-07T00:39:38;99750.49;;;24.17;39.00
62592;BME280;48659;41.622;2.276;2022-08-07T00:42:05;99752.43;;;23.69;39.35
62592;BME280;48659;41.622;2.276;2022-08-07T00:44:34;99755.59;;;22.97;40.91
62592;BME280;48659;41.622;2.276;2022-08-07T00:47:01;99755.74;;;22.29;42.69
62592;BME280;48659;41.622;2.276;2022-08-07T00:49:29;99752.93;;;22.45;42.39
62592;BME280;48659;41.622;2.276;2022-08-07T00:51:57;99740.14;;;23.23;40.30
62592;BME280;48659;41.622;2.276;2022-08-07T00:54:25;99746.26;;;22.21;42.12
62592;BME280;48659;41.622;2.276;2022-08-07T00:56:52;99740.70;;;23.26;40.73
62592;BME280;48659;41.622;2.276;2022-08-07T00:59:23;99737.18;;;23.51;39.69
62592;BME280;48659;41.622;2.276;2022-08-07T01:01:50;99737.01;;;23.24;40.18
62592;BME280;48659;41.622;2.276;2022-08-07T01:04:20;99736.83;;;23.47;39.38
62592;BME280;48659;41.622;2.276;2022-08-07T01:06:48;99732.82;;;24.40;37.27
62592;BME280;48659;41.622;2.276;2022-08-07T01:09:16;99731.30;;;26.00;34.64
62592;BME280;48659;41.622;2.276;2022-08-07T01:11:43;99728.67;;;26.93;33.59
62592;BME280;48659;41.622;2.276;2022-08-07T01:14:11;99729.96;;;27.03;33.25
62592;BME280;48659;41.622;2.276;2022-08-07T01:16:44;99725.42;;;27.34;32.56
62592;BME280;48659;41.622;2.276;2022-08-07T01:19:13;99727.56;;;26.89;32.95
62592;BME280;48659;41.622;2.276;2022-08-07T01:21:41;99727.53;;;24.53;36.60
62592;BME280;48659;41.622;2.276;2022-08-07T01:24:08;99727.21;;;24.25;38.35
62592;BME280;48659;41.622;2.276;2022-08-07T01:26:36;99720.77;;;23.98;38.80
62592;BME280;48659;41.622;2.276;2022-08-07T01:29:04;99720.44;;;23.25;39.90
62592;BME280;48659;41.622;2.276;2022-08-07T01:31:32;99719.71;;;23.15;39.30
62592;BME280;48659;41.622;2.276;2022-08-07T01:34:01;99717.92;;;23.61;38.87
62592;BME280;48659;41.622;2.276;2022-08-07T01:36:29;99716.32;;;24.18;37.89
62592;BME280;48659;41.622;2.276;2022-08-07T01:38:57;99718.32;;;23.69;38.90
62592;BME280;48659;41.622;2.276;2022-08-07T01:41:26;99715.74;;;22.69;39.90
62592;BME280;48659;41.622;2.276;2022-08-07T01:43:54;99715.15;;;23.45;39.26
62592;BME280;48659;41.622;2.276;2022-08-07T01:46:22;99713.39;;;24.30;37.11
62592;BME280;48659;41.622;2.276;2022-08-07T01:48:49;99714.22;;;23.92;38.46
62592;BME280;48659;41.622;2.276;2022-08-07T01:51:19;99718.85;;;23.35;39.33
62592;BME280;48659;41.622;2.276;2022-08-07T01:53:50;99723.57;;;22.73;40.02
62592;BME280;48659;41.622;2.276;2022-08-07T01:56:24;99721.55;;;23.58;38.82
62592;BME280;48659;41.622;2.276;2022-08-07T01:58:56;99724.20;;;23.04;39.38
62592;BME280;48659;41.622;2.276;2022-08-07T02:01:27;99730.02;;;22.94;39.54
62592;BME280;48659;41.622;2.276;2022-08-07T02:04:02;99735.83;;;22.95;39.95
62592;BME280;48659;41.622;2.276;2022-08-07T02:06:33;99731.86;;;23.13;39.75
62592;BME280;48659;41.622;2.276;2022-08-07T02:09:04;99733.80;;;23.26;39.32
62592;BME280;48659;41.622;2.276;2022-08-07T02:11:35;99733.53;;;23.28;39.15
62592;BME280;48659;41.622;2.276;2022-08-07T02:14:05;99730.28;;;23.57;38.69
62592;BME280;48659;41.622;2.276;2022-08-07T02:16:35;99724.36;;;23.04;39.78
62592;BME280;48659;41.622;2.276;2022-08-07T02:19:05;99729.54;;;22.00;42.38
62592;BME280;48659;41.622;2.276;2022-08-07T02:21:35;99726.57;;;22.68;41.01
62592;BME280;48659;41.622;2.276;2022-08-07T02:24:04;99724.85;;;22.68;41.48
62592;BME280;48659;41.622;2.276;2022-08-07T02:26:34;99716.35;;;22.95;40.24
62592;BME280;48659;41.622;2.276;2022-08-07T02:29:05;99726.65;;;22.00;42.93
62592;BME280;48659;41.622;2.276;2022-08-07T02:31:34;99728.87;;;22.03;43.06
62592;BME280;48659;41.622;2.276;2022-08-07T02:34:05;99738.56;;;22.53;42.76
62592;BME280;48659;41.622;2.276;2022-08-07T02:36:35;99733.89;;;22.25;42.92
62592;BME280;48659;41.622;2.276;2022-08-07T02:39:05;99730.83;;;23.29;40.69
62592;BME280;48659;41.622;2.276;2022-08-07T02:41:33;99729.77;;;23.58;39.42
62592;BME280;48659;41.622;2.276;2022-08-07T02:44:01;99728.92;;;23.83;39.27
62592;BME280;48659;41.622;2.276;2022-08-07T02:46:29;99723.10;;;24.07;38.23
62592;BME280;48659;41.622;2.276;2022-08-07T02:48:57;99720.64;;;23.93;39.58
62592;BME280;48659;41.622;2.276;2022-08-07T02:51:26;99716.75;;;23.41;39.30
62592;BME280;48659;41.622;2.276;2022-08-07T02:53:59;99714.55;;;23.55;40.18
62592;BME280;48659;41.622;2.276;2022-08-07T02:56:30;99727.46;;;23.29;40.84
62592;BME280;48659;41.622;2.276;2022-08-07T02:59:01;99721.98;;;23.11;41.21
62592;BME280;48659;41.622;2.276;2022-08-07T03:01:30;99723.66;;;21.91;43.04
62592;BME280;48659;41.622;2.276;2022-08-07T03:03:59;99722.50;;;22.40;42.58
62592;BME280;48659;41.622;2.276;2022-08-07T03:06:33;99714.07;;;22.86;41.95
62592;BME280;48659;41.622;2.276;2022-08-07T03:09:02;99713.99;;;22.83;42.06
62592;BME280;48659;41.622;2.276;2022-08-07T03:11:30;99714.38;;;22.79;42.23
62592;BME280;48659;41.622;2.276;2022-08-07T03:14:00;99716.70;;;22.14;43.21
62592;BME280;48659;41.622;2.276;2022-08-07T03:16:29;99717.61;;;21.97;43.63
62592;BME280;48659;41.622;2.276;2022-08-07T03:18:56;99718.62;;;21.54;44.82
62592;BME280;48659;41.622;2.276;2022-08-07T03:21:26;99715.36;;;21.63;44.69
62592;BME280;48659;41.622;2.276;2022-08-07T03:23:55;99713.32;;;21.74;43.82
62592;BME280;48659;41.622;2.276;2022-08-07T03:26:27;99716.65;;;21.77;44.06
62592;BME280;48659;41.622;2.276;2022-08-07T03:28:59;99720.87;;;22.44;43.41
62592;BME280;48659;41.622;2.276;2022-08-07T03:31:27;99715.30;;;23.10;41.72
62592;BME280;48659;41.622;2.276;2022-08-07T03:33:57;99719.60;;;22.14;42.86
62592;BME280;48659;41.622;2.276;2022-08-07T03:36:26;99717.86;;;22.27;42.82
62592;BME280;48659;41.622;2.276;2022-08-07T03:38:58;99716.42;;;22.62;42.75
62592;BME280;48659;41.622;2.276;2022-08-07T03:41:28;99713.68;;;22.90;42.13
62592;BME280;48659;41.622;2.276;2022-08-07T03:43:56;99706.65;;;23.10;41.43
62592;BME280;48659;41.622;2.276;2022-08-07T03:46:24;99706.02;;;23.62;40.71
62592;BME280;48659;41.622;2.276;2022-08-07T03:48:52;99706.83;;;22.71;42.11
62592;BME280;48659;41.622;2.276;2022-08-07T03:51:26;99707.24;;;23.18;41.06
62592;BME280;48659;41.622;2.276;2022-08-07T03:53:54;99707.65;;;23.37;41.50
62592;BME280;48659;41.622;2.276;2022-08-07T03:56:24;99704.15;;;23.34;41.19
62592;BME280;48659;41.622;2.276;2022-08-07T03:58:52;99711.47;;;22.82;42.76
62592;BME280;48659;41.622;2.276;2022-08-07T04:01:20;99704.28;;;23.57;40.87
62592;BME280;48659;41.622;2.276;2022-08-07T04:03:49;99708.61;;;23.02;40.79
62592;BME280;48659;41.622;2.276;2022-08-07T04:06:17;99716.17;;;22.51;43.19
62592;BME280;48659;41.622;2.276;2022-08-07T04:08:44;99727.53;;;21.65;44.30
62592;BME280;48659;41.622;2.276;2022-08-07T04:11:21;99721.35;;;23.20;41.59
62592;BME280;48659;41.622;2.276;2022-08-07T04:13:49;99726.14;;;22.73;42.11
62592;BME280;48659;41.622;2.276;2022-08-07T04:16:17;99726.45;;;22.87;41.34
62592;BME280;48659;41.622;2.276;2022-08-07T04:18:45;99730.92;;;23.74;40.25
62592;BME280;48659;41.622;2.276;2022-08-07T04:21:26;99732.68;;;23.96;39.93
62592;BME280;48659;41.622;2.276;2022-08-07T04:23:54;99731.95;;;23.15;41.44
62592;BME280;48659;41.622;2.276;2022-08-07T04:26:23;99740.27;;;22.05;43.22
62592;BME280;48659;41.622;2.276;2022-08-07T04:28:51;99732.57;;;23.65;40.48
62592;BME280;48659;41.622;2.276;2022-08-07T04:31:18;99733.64;;;23.24;41.05
62592;BME280;48659;41.622;2.276;2022-08-07T04:33:48;99741.12;;;22.65;41.88
62592;BME280;48659;41.622;2.276;2022-08-07T04:36:21;99743.39;;;22.85;41.54
62592;BME280;48659;41.622;2.276;2022-08-07T04:38:48;99743.38;;;22.93;41.94
62592;BME280;48659;41.622;2.276;2022-08-07T04:41:26;99752.77;;;21.98;43.01
62592;BME280;48659;41.622;2.276;2022-08-07T04:43:54;99754.93;;;21.42;44.91
62592;BME280;48659;41.622;2.276;2022-08-07T04:46:29;99758.85;;;22.36;42.75
62592;BME280;48659;41.622;2.276;2022-08-07T04:49:06;99761.83;;;21.87;44.19
62592;BME280;48659;41.622;2.276;2022-08-07T04:51:43;99766.63;;;21.46;44.72
62592;BME280;48659;41.622;2.276;2022-08-07T04:54:21;99775.75;;;22.75;42.80
62592;BME280;48659;41.622;2.276;2022-08-07T04:56:56;99780.79;;;22.68;42.09
62592;BME280;48659;41.622;2.276;2022-08-07T04:59:31;99789.16;;;23.11;41.06
62592;BME280;48659;41.622;2.276;2022-08-07T05:02:03;99794.92;;;23.13;41.39
62592;BME280;48659;41.622;2.276;2022-08-07T05:04:37;99795.92;;;21.86;44.36
62592;BME280;48659;41.622;2.276;2022-08-07T05:07:12;99798.33;;;22.34;43.80
62592;BME280;48659;41.622;2.276;2022-08-07T05:09:59;99798.21;;;22.20;43.98
62592;BME280;48659;41.622;2.276;2022-08-07T05:12:34;99797.45;;;22.04;43.58
62592;BME280;48659;41.622;2.276;2022-08-07T05:15:07;99794.22;;;23.57;41.21
62592;BME280;48659;41.622;2.276;2022-08-07T05:17:35;99793.68;;;24.29;40.06
62592;BME280;48659;41.622;2.276;2022-08-07T05:20:03;99801.90;;;22.65;41.75
62592;BME280;48659;41.622;2.276;2022-08-07T05:22:34;99801.13;;;23.59;40.50
62592;BME280;48659;41.622;2.276;2022-08-07T05:25:05;99805.72;;;24.52;38.92
62592;BME280;48659;41.622;2.276;2022-08-07T05:27:33;99817.31;;;22.73;42.41
62592;BME280;48659;41.622;2.276;2022-08-07T05:30:02;99815.21;;;23.55;41.31
62592;BME280;48659;41.622;2.276;2022-08-07T05:32:29;99809.68;;;23.09;42.23
62592;BME280;48659;41.622;2.276;2022-08-07T05:34:58;99804.90;;;23.68;41.50
62592;BME280;48659;41.622;2.276;2022-08-07T05:37:25;99809.00;;;22.53;43.65
62592;BME280;48659;41.622;2.276;2022-08-07T05:39:54;99805.54;;;23.89;41.01
62592;BME280;48659;41.622;2.276;2022-08-07T05:42:22;99812.64;;;22.78;42.18
62592;BME280;48659;41.622;2.276;2022-08-07T05:44:50;99809.13;;;23.69;40.40
62592;BME280;48659;41.622;2.276;2022-08-07T05:47:22;99820.72;;;22.36;43.35
62592;BME280;48659;41.622;2.276;2022-08-07T05:49:51;99813.91;;;24.60;39.19
62592;BME280;48659;41.622;2.276;2022-08-07T05:52:19;99824.54;;;23.46;41.36
62592;BME280;48659;41.622;2.276;2022-08-07T05:54:47;99822.68;;;24.72;40.09
62592;BME280;48659;41.622;2.276;2022-08-07T05:57:16;99820.35;;;23.90;40.18
62592;BME280;48659;41.622;2.276;2022-08-07T05:59:43;99822.03;;;24.07;39.77
62592;BME280;48659;41.622;2.276;2022-08-07T06:02:26;99822.97;;;24.71;38.93
62592;BME280;48659;41.622;2.276;2022-08-07T06:04:56;99825.94;;;23.63;41.24
62592;BME280;48659;41.622;2.276;2022-08-07T06:07:26;99822.61;;;24.12;39.33
62592;BME280;48659;41.622;2.276;2022-08-07T06:09:55;99820.05;;;25.89;36.73
62592;BME280;48659;41.622;2.276;2022-08-07T06:12:22;99824.40;;;24.71;37.85
62592;BME280;48659;41.622;2.276;2022-08-07T06:14:50;99827.29;;;24.79;38.11
62592;BME280;48659;41.622;2.276;2022-08-07T06:17:18;99841.82;;;22.29;42.63
62592;BME280;48659;41.622;2.276;2022-08-07T06:19:47;99845.50;;;22.85;42.19
62592;BME280;48659;41.622;2.276;2022-08-07T06:22:16;99840.59;;;24.10;39.86
62592;BME280;48659;41.622;2.276;2022-08-07T06:24:43;99846.83;;;22.76;42.38
62592;BME280;48659;41.622;2.276;2022-08-07T06:27:26;99850.67;;;23.48;41.68
62592;BME280;48659;41.622;2.276;2022-08-07T06:29:54;99849.74;;;23.65;41.48
62592;BME280;48659;41.622;2.276;2022-08-07T06:32:22;99851.31;;;23.51;41.18
62592;BME280;48659;41.622;2.276;2022-08-07T06:34:49;99851.13;;;23.10;41.36
62592;BME280;48659;41.622;2.276;2022-08-07T06:37:16;99847.62;;;24.09;39.98
62592;BME280;48659;41.622;2.276;2022-08-07T06:39:45;99849.14;;;24.54;38.72
62592;BME280;48659;41.622;2.276;2022-08-07T06:42:27;99844.45;;;25.17;37.21
62592;BME280;48659;41.622;2.276;2022-08-07T06:44:57;99841.56;;;24.54;38.52
62592;BME280;48659;41.622;2.276;2022-08-07T06:47:25;99842.83;;;24.30;39.24
62592;BME280;48659;41.622;2.276;2022-08-07T06:49:55;99850.29;;;23.18;41.61
62592;BME280;48659;41.622;2.276;2022-08-07T06:52:24;99849.40;;;23.42;41.19
62592;BME280;48659;41.622;2.276;2022-08-07T06:54:54;99845.03;;;24.05;39.59
62592;BME280;48659;41.622;2.276;2022-08-07T06:57:23;99844.47;;;24.58;38.36
62592;BME280;48659;41.622;2.276;2022-08-07T06:59:54;99846.07;;;24.73;38.07
62592;BME280;48659;41.622;2.276;2022-08-07T07:02:34;99846.75;;;24.25;39.19
62592;BME280;48659;41.622;2.276;2022-08-07T07:05:03;99848.32;;;24.31;39.93
62592;BME280;48659;41.622;2.276;2022-08-07T07:07:30;99849.79;;;24.95;37.76
62592;BME280;48659;41.622;2.276;2022-08-07T07:09:58;99849.22;;;25.86;36.34
62592;BME280;48659;41.622;2.276;2022-08-07T07:12:35;99853.57;;;25.17;37.40
62592;BME280;48659;41.622;2.276;2022-08-07T07:15:08;99849.95;;;25.59;36.90
62592;BME280;48659;41.622;2.276;2022-08-07T07:17:44;99853.67;;;26.33;35.59
62592;BME280;48659;41.622;2.276;2022-08-07T07:20:28;99852.00;;;26.15;35.60
62592;BME280;48659;41.622;2.276;2022-08-07T07:22:56;99853.41;;;27.39;34.03
62592;BME280;48659;41.622;2.276;2022-08-07T07:25:23;99847.91;;;28.22;32.57
62592;BME280;48659;41.622;2.276;2022-08-07T07:27:55;99843.78;;;28.35;31.96
62592;BME280;48659;41.622;2.276;2022-08-07T07:30:26;99844.96;;;29.39;30.08
62592;BME280;48659;41.622;2.276;2022-08-07T07:32:56;99845.68;;;30.50;28.91
62592;BME280;48659;41.622;2.276;2022-08-07T07:35:25;99850.33;;;29.76;29.87
62592;BME280;48659;41.622;2.276;2022-08-07T07:37:54;99848.29;;;30.44;29.00
62592;BME280;48659;41.622;2.276;2022-08-07T07:40:22;99854.53;;;30.53;29.02
62592;BME280;48659;41.622;2.276;2022-08-07T07:42:53;99856.80;;;29.42;30.37
62592;BME280;48659;41.622;2.276;2022-08-07T07:45:25;99857.32;;;29.42;29.84
62592;BME280;48659;41.622;2.276;2022-08-07T07:47:54;99857.27;;;28.42;31.74
62592;BME280;48659;41.622;2.276;2022-08-07T07:50:24;99855.78;;;28.82;31.41
62592;BME280;48659;41.622;2.276;2022-08-07T07:52:53;99856.22;;;28.32;31.64
62592;BME280;48659;41.622;2.276;2022-08-07T07:55:21;99853.36;;;29.28;30.28
62592;BME280;48659;41.622;2.276;2022-08-07T07:57:51;99851.37;;;29.47;30.11
62592;BME280;48659;41.622;2.276;2022-08-07T08:00:20;99857.01;;;27.52;33.19
62592;BME280;48659;41.622;2.276;2022-08-07T08:02:48;99853.82;;;29.31;31.04
62592;BME280;48659;41.622;2.276;2022-08-07T08:05:17;99855.01;;;28.96;30.83
62592;BME280;48659;41.622;2.276;2022-08-07T08:07:47;99847.90;;;30.51;28.67
62592;BME280;48659;41.622;2.276;2022-08-07T08:10:16;99851.64;;;29.81;29.43
62592;BME280;48659;41.622;2.276;2022-08-07T08:12:46;99850.43;;;30.22;29.42
62592;BME280;48659;41.622;2.276;2022-08-07T08:15:23;99852.35;;;30.44;29.96
62592;BME280;48659;41.622;2.276;2022-08-07T08:17:53;99852.78;;;31.46;28.05
62592;BME280;48659;41.622;2.276;2022-08-07T08:20:23;99853.98;;;29.81;29.49
62592;BME280;48659;41.622;2.276;2022-08-07T08:22:53;99854.60;;;31.04;28.66
62592;BME280;48659;41.622;2.276;2022-08-07T08:25:24;99855.91;;;29.89;30.35
62592;BME280;48659;41.622;2.276;2022-08-07T08:27:53;99854.65;;;30.10;29.86
62592;BME280;48659;41.622;2.276;2022-08-07T08:30:23;99852.82;;;29.96;29.87
62592;BME280;48659;41.622;2.276;2022-08-07T08:32:53;99854.80;;;29.38;31.18
62592;BME280;48659;41.622;2.276;2022-08-07T08:35:25;99846.30;;;30.59;29.20
62592;BME280;48659;41.622;2.276;2022-08-07T08:37:56;99842.80;;;31.15;28.49
62592;BME280;48659;41.622;2.276;2022-08-07T08:40:30;99843.83;;;29.90;29.93
62592;BME280;48659;41.622;2.276;2022-08-07T08:43:10;99845.32;;;29.11;31.76
62592;BME280;48659;41.622;2.276;2022-08-07T08:45:47;99838.62;;;30.60;29.56
62592;BME280;48659;41.622;2.276;2022-08-07T08:48:24;99838.19;;;31.29;28.09
62592;BME280;48659;41.622;2.276;2022-08-07T08:50:57;99840.88;;;28.13;33.13
62592;BME280;48659;41.622;2.276;2022-08-07T08:53:32;99835.54;;;30.73;29.47
62592;BME280;48659;41.622;2.276;2022-08-07T08:56:05;99836.40;;;29.94;30.35
62592;BME280;48659;41.622;2.276;2022-08-07T08:58:42;99831.94;;;31.05;29.21
62592;BME280;48659;41.622;2.276;2022-08-07T09:01:19;99831.16;;;29.61;30.57
62592;BME280;48659;41.622;2.276;2022-08-07T09:03:54;99830.41;;;30.16;30.38
62592;BME280;48659;41.622;2.276;2022-08-07T09:06:51;99829.51;;;30.16;30.57
62592;BME280;48659;41.622;2.276;2022-08-07T09:09:58;99830.85;;;28.97;31.88
62592;BME280;48659;41.622;2.276;2022-08-07T09:12:41;99830.68;;;31.27;29.33
62592;BME280;48659;41.622;2.276;2022-08-07T09:15:29;99828.64;;;29.09;31.37
62592;BME280;48659;41.622;2.276;2022-08-07T09:18:22;99822.61;;;30.06;30.28
62592;BME280;48659;41.622;2.276;2022-08-07T09:21:01;99822.34;;;30.46;30.55
62592;BME280;48659;41.622;2.276;2022-08-07T09:23:37;99820.68;;;31.07;29.90
62592;BME280;48659;41.622;2.276;2022-08-07T09:26:17;99814.64;;;30.31;30.85
62592;BME280;48659;41.622;2.276;2022-08-07T09:28:53;99824.27;;;30.90;29.67
62592;BME280;48659;41.622;2.276;2022-08-07T09:31:29;99821.45;;;30.75;29.67
62592;BME280;48659;41.622;2.276;2022-08-07T09:34:07;99816.39;;;31.72;28.67
62592;BME280;48659;41.622;2.276;2022-08-07T09:36:42;99815.07;;;32.12;28.36
62592;BME280;48659;41.622;2.276;2022-08-07T09:39:26;99805.67;;;32.86;27.61
62592;BME280;48659;41.622;2.276;2022-08-07T09:42:05;99810.29;;;33.34;27.44
62592;BME280;48659;41.622;2.276;2022-08-07T09:44:46;99809.36;;;32.57;28.03
62592;BME280;48659;41.622;2.276;2022-08-07T09:47:23;99810.86;;;31.27;29.75
62592;BME280;48659;41.622;2.276;2022-08-07T09:50:02;99803.40;;;32.14;28.74
62592;BME280;48659;41.622;2.276;2022-08-07T09:52:39;99810.01;;;30.79;30.48
62592;BME280;48659;41.622;2.276;2022-08-07T09:55:25;99803.87;;;31.50;29.90
62592;BME280;48659;41.622;2.276;2022-08-07T09:58:27;99799.63;;;32.41;29.00
62592;BME280;48659;41.622;2.276;2022-08-07T10:01:07;99803.83;;;31.75;29.52
62592;BME280;48659;41.622;2.276;2022-08-07T10:03:50;99805.98;;;31.18;30.42
62592;BME280;48659;41.622;2.276;2022-08-07T10:07:16;99802.75;;;31.30;29.62
62592;BME280;48659;41.622;2.276;2022-08-07T10:09:58;99798.52;;;33.30;28.01
62592;BME280;48659;41.622;2.276;2022-08-07T10:12:45;99800.83;;;32.19;29.12
62592;BME280;48659;41.622;2.276;2022-08-07T10:15:34;99802.36;;;32.64;28.06
62592;BME280;48659;41.622;2.276;2022-08-07T10:18:27;99804.87;;;31.33;29.98
62592;BME280;48659;41.622;2.276;2022-08-07T10:21:11;99805.01;;;29.90;31.48
62592;BME280;48659;41.622;2.276;2022-08-07T10:23:59;99806.49;;;30.75;31.50
62592;BME280;48659;41.622;2.276;2022-08-07T10:26:42;99805.90;;;30.97;31.07
62592;BME280;48659;41.622;2.276;2022-08-07T10:29:31;99794.77;;;32.38;29.63
62592;BME280;48659;41.622;2.276;2022-08-07T10:32:18;99790.99;;;32.04;29.44
62592;BME280;48659;41.622;2.276;2022-08-07T10:35:02;99786.73;;;32.73;28.87
62592;BME280;48659;41.622;2.276;2022-08-07T10:37:41;99785.25;;;32.97;28.14
62592;BME280;48659;41.622;2.276;2022-08-07T10:40:12;99791.08;;;31.24;30.09
62592;BME280;48659;41.622;2.276;2022-08-07T10:42:57;99787.50;;;32.23;29.40
62592;BME280;48659;41.622;2.276;2022-08-07T10:45:32;99784.88;;;32.25;28.95
62592;BME280;48659;41.622;2.276;2022-08-07T10:48:13;99782.88;;;32.87;28.18
62592;BME280;48659;41.622;2.276;2022-08-07T10:50:56;99780.13;;;32.44;28.75
62592;BME280;48659;41.622;2.276;2022-08-07T10:53:27;99778.46;;;33.09;27.32
62592;BME280;48659;41.622;2.276;2022-08-07T10:56:03;99775.61;;;33.31;27.49
62592;BME280;48659;41.622;2.276;2022-08-07T10:58:57;99781.13;;;32.91;27.62
62592;BME280;48659;41.622;2.276;2022-08-07T11:01:35;99781.36;;;32.43;28.45
62592;BME280;48659;41.622;2.276;2022-08-07T11:04:10;99786.60;;;31.78;29.25
62592;BME280;48659;41.622;2.276;2022-08-07T11:07:00;99785.78;;;31.20;29.95
62592;BME280;48659;41.622;2.276;2022-08-07T11:09:35;99786.69;;;30.86;30.60
62592;BME280;48659;41.622;2.276;2022-08-07T11:12:13;99785.29;;;30.35;31.49
62592;BME280;48659;41.622;2.276;2022-08-07T11:14:48;99788.04;;;30.93;30.45
62592;BME280;48659;41.622;2.276;2022-08-07T11:17:24;99778.24;;;33.03;27.54
62592;BME280;48659;41.622;2.276;2022-08-07T11:20:03;99773.29;;;32.73;27.56
62592;BME280;48659;41.622;2.276;2022-08-07T11:22:36;99771.74;;;32.72;27.62
62592;BME280;48659;41.622;2.276;2022-08-07T11:25:12;99773.73;;;33.19;27.49
62592;BME280;48659;41.622;2.276;2022-08-07T11:27:49;99770.55;;;34.21;26.37
62592;BME280;48659;41.622;2.276;2022-08-07T11:30:23;99769.57;;;34.14;25.95
62592;BME280;48659;41.622;2.276;2022-08-07T11:32:56;99770.02;;;32.72;27.63
62592;BME280;48659;41.622;2.276;2022-08-07T11:35:30;99766.51;;;32.53;27.68
62592;BME280;48659;41.622;2.276;2022-08-07T11:38:08;99767.18;;;31.60;29.29
62592;BME280;48659;41.622;2.276;2022-08-07T11:40:46;99764.49;;;32.68;28.61
62592;BME280;48659;41.622;2.276;2022-08-07T11:43:20;99762.19;;;33.29;27.22
62592;BME280;48659;41.622;2.276;2022-08-07T11:46:04;99764.48;;;33.66;26.74
62592;BME280;48659;41.622;2.276;2022-08-07T11:48:53;99760.08;;;31.76;28.83
62592;BME280;48659;41.622;2.276;2022-08-07T11:51:37;99760.15;;;31.19;29.42
62592;BME280;48659;41.622;2.276;2022-08-07T11:54:28;99758.42;;;33.35;27.15
62592;BME280;48659;41.622;2.276;2022-08-07T11:57:10;99757.66;;;33.10;27.56
62592;BME280;48659;41.622;2.276;2022-08-07T12:00:02;99752.87;;;33.35;27.35
62592;BME280;48659;41.622;2.276;2022-08-07T12:02:47;99748.08;;;33.63;26.49
62592;BME280;48659;41.622;2.276;2022-08-07T12:05:25;99742.10;;;33.89;26.03
62592;BME280;48659;41.622;2.276;2022-08-07T12:07:56;99743.64;;;33.12;26.78
62592;BME280;48659;41.622;2.276;2022-08-07T12:10:34;99736.84;;;33.50;25.93
62592;BME280;48659;41.622;2.276;2022-08-07T12:13:09;99734.70;;;33.53;26.95
62592;BME280;48659;41.622;2.276;2022-08-07T12:15:42;99734.44;;;33.30;26.02
62592;BME280;48659;41.622;2.276;2022-08-07T12:18:18;99732.86;;;33.64;26.25
62592;BME280;48659;41.622;2.276;2022-08-07T12:20:59;99733.29;;;31.58;27.58
62592;BME280;48659;41.622;2.276;2022-08-07T12:23:37;99737.78;;;32.01;27.42
62592;BME280;48659;41.622;2.276;2022-08-07T12:26:13;99731.11;;;33.27;26.76
62592;BME280;48659;41.622;2.276;2022-08-07T12:28:53;99728.73;;;32.81;27.33
62592;BME280;48659;41.622;2.276;2022-08-07T12:31:34;99721.95;;;33.38;25.97
62592;BME280;48659;41.622;2.276;2022-08-07T12:34:03;99723.21;;;33.29;26.18
62592;BME280;48659;41.622;2.276;2022-08-07T12:36:32;99720.06;;;33.34;26.19
62592;BME280;48659;41.622;2.276;2022-08-07T12:39:02;99714.99;;;32.01;27.72
62592;BME280;48659;41.622;2.276;2022-08-07T12:41:33;99711.23;;;31.96;27.46
62592;BME280;48659;41.622;2.276;2022-08-07T12:44:05;99702.25;;;31.94;26.51
62592;BME280;48659;41.622;2.276;2022-08-07T12:46:45;99704.67;;;32.86;27.02
62592;BME280;48659;41.622;2.276;2022-08-07T12:49:25;99696.16;;;32.74;27.29
62592;BME280;48659;41.622;2.276;2022-08-07T12:52:03;99691.81;;;33.35;26.17
62592;BME280;48659;41.622;2.276;2022-08-07T12:54:38;99684.22;;;32.16;26.81
62592;BME280;48659;41.622;2.276;2022-08-07T12:57:09;99678.16;;;33.35;26.48
62592;BME280;48659;41.622;2.276;2022-08-07T12:59:37;99676.38;;;33.70;24.94
62592;BME280;48659;41.622;2.276;2022-08-07T13:02:25;99680.65;;;32.85;26.13
62592;BME280;48659;41.622;2.276;2022-08-07T13:05:05;99672.77;;;32.24;26.45
62592;BME280;48659;41.622;2.276;2022-08-07T13:07:52;99667.28;;;33.51;25.62
62592;BME280;48659;41.622;2.276;2022-08-07T13:10:34;99668.38;;;33.36;25.59
62592;BME280;48659;41.622;2.276;2022-08-07T13:13:18;99671.35;;;31.74;27.19
62592;BME280;48659;41.622;2.276;2022-08-07T13:15:55;99665.94;;;31.83;27.15
62592;BME280;48659;41.622;2.276;2022-08-07T13:18:33;99665.56;;;32.99;25.73
62592;BME280;48659;41.622;2.276;2022-08-07T13:21:08;99668.59;;;33.43;25.73
62592;BME280;48659;41.622;2.276;2022-08-07T13:23:47;99673.79;;;34.02;25.16
62592;BME280;48659;41.622;2.276;2022-08-07T13:26:29;99674.25;;;33.29;25.57
62592;BME280;48659;41.622;2.276;2022-08-07T13:29:07;99692.21;;;31.91;27.32
62592;BME280;48659;41.622;2.276;2022-08-07T13:31:44;99687.39;;;33.37;25.14
62592;BME280;48659;41.622;2.276;2022-08-07T13:34:24;99689.29;;;32.49;25.50
62592;BME280;48659;41.622;2.276;2022-08-07T13:36:58;99693.90;;;32.08;26.11